createdAt,value
2022-08-03T01:44:28.687Z,304.0
2022-08-03T01:46:18.247Z,304.0
2022-08-03T02:52:18.722Z,304.0
2022-08-03T02:54:18.335Z,304.0
2022-08-03T03:02:18.531Z,304.0
2022-08-03T03:04:18.363Z,304.0
2022-08-03T03:06:18.341Z,304.0
2022-08-03T03:34:18.705Z,304.0
2022-08-03T04:24:18.452Z,26.0
2022-08-03T04:26:18.440Z,137.0
2022-08-03T06:14:18.548Z,172.5
2022-08-03T06:20:18.567Z,198.0
2022-08-03T06:22:18.821Z,198.0
2022-08-03T06:24:18.549Z,198.0
2022-08-03T06:26:18.567Z,218.4
2022-08-03T06:28:51.264Z,192.5
2022-08-03T06:30:21.321Z,217.7
2022-08-03T06:32:18.977Z,185.3
2022-08-03T06:34:33.404Z,241.5
2022-08-03T06:36:18.551Z,235.0
2022-08-03T06:48:18.558Z,111.0
2022-08-03T06:50:21.748Z,111.0
2022-08-03T06:54:18.636Z,251.0
2022-08-03T06:56:18.583Z,251.0
2022-08-03T06:58:18.553Z,200.5
2022-08-03T07:02:19.303Z,304.1
2022-08-03T07:06:18.608Z,293.9
2022-08-03T07:08:18.664Z,278.3
2022-08-03T07:10:18.626Z,301.0
2022-08-03T07:12:18.882Z,256.7
2022-08-03T07:14:18.598Z,205.2
2022-08-03T07:16:18.620Z,316.3
2022-08-03T07:18:29.486Z,271.0
2022-08-03T07:20:18.629Z,203.5
2022-08-03T07:22:18.747Z,189.2
2022-08-03T07:24:18.594Z,141.0
2022-08-03T07:26:18.616Z,170.2
2022-08-03T07:30:18.581Z,112.6
2022-08-03T07:34:18.614Z,117.1
2022-08-03T07:36:18.633Z,186.1
2022-08-03T07:38:21.085Z,202.0
2022-08-03T07:40:18.632Z,205.8
2022-08-03T07:42:18.968Z,126.6
2022-08-03T07:44:18.628Z,111.0
2022-08-03T07:46:18.643Z,105.3
2022-08-03T07:48:18.632Z,128.6
2022-08-03T07:50:18.636Z,111.0
2022-08-03T07:52:18.998Z,98.5
2022-08-03T07:54:18.663Z,108.3
2022-08-03T07:56:18.619Z,175.8
2022-08-03T07:58:23.712Z,112.0
2022-08-03T08:00:18.642Z,115.3
2022-08-03T08:02:18.920Z,143.7
2022-08-03T08:04:18.645Z,200.0
2022-08-03T08:06:18.697Z,238.0
2022-08-03T08:08:18.647Z,201.7
2022-08-03T08:10:18.782Z,100.2
2022-08-03T08:12:18.943Z,104.0
2022-08-03T08:14:18.675Z,117.7
2022-08-03T08:16:18.646Z,111.7
2022-08-03T08:18:18.644Z,121.7
2022-08-03T08:20:25.186Z,105.7
2022-08-03T08:22:19.045Z,114.0
2022-08-03T08:24:19.783Z,70.7
2022-08-03T08:26:18.664Z,153.2
2022-08-03T08:28:29.370Z,144.9
2022-08-03T08:30:19.287Z,95.5
2022-08-03T08:32:19.129Z,47.4
2022-08-03T08:34:18.679Z,1.3
2022-08-03T08:36:18.669Z,116.9
2022-08-03T08:38:18.696Z,123.3
2022-08-03T08:40:18.681Z,106.2
2022-08-03T08:42:18.905Z,106.4
2022-08-03T08:44:18.689Z,118.4
2022-08-03T08:46:22.962Z,151.7
2022-08-03T08:48:18.681Z,186.7
2022-08-03T08:50:27.198Z,247.9
2022-08-03T08:52:25.206Z,132.7
2022-08-03T08:54:18.714Z,111.0
2022-08-03T08:56:18.707Z,117.8
2022-08-03T08:58:20.912Z,119.4
2022-08-03T09:02:19.080Z,210.4
2022-08-03T09:04:18.700Z,139.6
2022-08-03T09:06:18.681Z,112.7
2022-08-03T09:08:18.687Z,131.4
2022-08-03T09:10:18.671Z,121.0
2022-08-03T09:12:39.179Z,103.2
2022-08-03T09:14:34.432Z,98.4
2022-08-03T09:16:18.674Z,119.8
2022-08-03T09:18:18.699Z,123.3
2022-08-03T09:20:18.675Z,85.9
2022-08-03T09:22:18.777Z,102.9
2022-08-03T09:24:31.220Z,143.2
2022-08-03T09:26:16.212Z,85.5
2022-08-03T09:28:33.726Z,126.0
2022-08-03T09:30:32.182Z,109.0
2022-08-03T09:32:16.201Z,137.7
2022-08-03T09:34:16.258Z,117.1
2022-08-03T09:36:16.217Z,100.8
2022-08-03T09:38:16.203Z,55.8
2022-08-03T09:40:16.235Z,19.2
2022-08-03T09:42:16.249Z,102.0
2022-08-03T09:44:25.058Z,125.1
2022-08-03T09:46:16.222Z,105.7
2022-08-03T09:48:16.232Z,262.0
2022-08-03T09:50:16.222Z,267.0
2022-08-03T09:52:32.008Z,106.0
2022-08-03T09:54:20.547Z,137.2
2022-08-03T09:56:36.283Z,155.9
2022-08-03T09:58:16.233Z,174.7
2022-08-03T10:00:16.228Z,177.2
2022-08-03T10:02:16.268Z,191.0
2022-08-03T10:04:16.260Z,225.3
2022-08-03T10:06:16.269Z,258.3
2022-08-03T10:08:16.325Z,228.4
2022-08-03T10:10:31.407Z,240.7
2022-08-03T10:12:16.283Z,287.3
2022-08-03T10:14:16.275Z,246.4
2022-08-03T10:16:22.546Z,241.5
2022-08-03T10:18:16.293Z,287.8
2022-08-03T10:20:16.270Z,280.4
2022-08-03T10:22:16.288Z,277.0
2022-08-03T10:24:16.284Z,255.2
2022-08-03T10:26:16.284Z,232.1
2022-08-03T10:28:16.297Z,260.4
2022-08-03T10:30:16.295Z,270.1
2022-08-03T10:32:16.302Z,275.5
2022-08-03T10:34:16.297Z,230.3
2022-08-03T10:36:16.289Z,218.8
2022-08-03T10:38:16.313Z,293.5
2022-08-03T10:40:39.499Z,249.1
2022-08-03T10:42:16.291Z,239.0
2022-08-03T10:44:16.305Z,231.8
2022-08-03T10:46:16.304Z,219.1
2022-08-03T10:48:16.298Z,192.0
2022-08-03T10:50:16.265Z,219.1
2022-08-03T10:52:33.798Z,209.9
2022-08-03T10:54:16.374Z,151.2
2022-08-03T10:56:16.967Z,145.0
2022-08-03T10:58:30.518Z,114.1
2022-08-03T11:00:16.286Z,179.7
2022-08-03T11:02:16.343Z,212.6
2022-08-03T11:04:17.068Z,238.5
2022-08-03T11:06:16.325Z,213.5
2022-08-03T11:08:16.328Z,242.1
2022-08-03T11:10:16.333Z,237.2
2022-08-03T11:12:16.344Z,250.5
2022-08-03T11:14:16.326Z,226.5
2022-08-03T11:16:19.882Z,224.6
2022-08-03T11:18:16.329Z,284.9
2022-08-03T11:20:16.338Z,304.1
2022-08-03T11:22:16.339Z,169.9
2022-08-03T11:24:16.348Z,179.9
2022-08-03T11:26:16.368Z,177.2
2022-08-03T11:28:16.355Z,176.4
2022-08-03T11:30:16.338Z,114.7
2022-08-03T11:32:19.488Z,201.0
2022-08-03T11:34:16.356Z,188.9
2022-08-03T11:36:16.355Z,197.1
2022-08-03T11:38:16.362Z,206.4
2022-08-03T11:40:16.376Z,204.9
2022-08-03T11:42:16.373Z,208.2
2022-08-03T11:44:16.363Z,82.6
2022-08-03T11:46:16.386Z,131.5
2022-08-03T11:48:16.387Z,183.7
2022-08-03T11:50:16.363Z,185.1
2022-08-03T11:52:16.416Z,170.1
2022-08-03T11:54:16.389Z,172.9
2022-08-03T11:56:16.384Z,224.5
2022-08-03T11:59:12.882Z,225.8
2022-08-03T11:59:22.668Z,225.8
2022-08-03T12:00:16.374Z,292.1
2022-08-03T12:02:16.372Z,227.1
2022-08-03T12:04:16.621Z,222.6
2022-08-03T12:06:16.368Z,280.0
2022-08-03T12:08:16.370Z,310.7
2022-08-03T12:10:16.361Z,273.0
2022-08-03T12:12:16.381Z,278.9
2022-08-03T12:14:50.375Z,210.2
2022-08-03T12:16:16.374Z,208.4
2022-08-03T12:18:16.416Z,197.4
2022-08-03T12:20:16.384Z,203.0
2022-08-03T12:22:16.421Z,205.0
2022-08-03T12:24:16.353Z,160.5
2022-08-03T12:26:16.387Z,186.0
2022-08-03T12:28:28.396Z,146.0
2022-08-03T12:30:18.890Z,284.9
2022-08-03T12:32:18.894Z,328.3
2022-08-03T12:34:18.898Z,258.7
2022-08-03T12:36:18.891Z,116.9
2022-08-03T12:38:18.935Z,127.0
2022-08-03T12:40:22.186Z,130.4
2022-08-03T12:42:18.912Z,123.0
2022-08-03T12:44:18.921Z,119.7
2022-08-03T12:46:18.912Z,185.0
2022-08-03T12:48:18.918Z,205.1
2022-08-03T12:50:18.909Z,207.7
2022-08-03T12:52:18.901Z,145.2
2022-08-03T12:54:18.925Z,106.8
2022-08-03T12:56:18.972Z,138.9
2022-08-03T12:58:19.178Z,180.2
2022-08-03T13:00:28.944Z,234.9
2022-08-03T13:02:19.025Z,114.6
2022-08-03T13:04:18.949Z,152.5
2022-08-03T13:06:18.943Z,181.8
2022-08-03T13:08:18.948Z,192.3
2022-08-03T13:10:18.947Z,180.0
2022-08-03T13:12:18.952Z,194.5
2022-08-03T13:14:20.325Z,187.9
2022-08-03T13:16:19.558Z,127.4
2022-08-03T13:18:18.953Z,109.2
2022-08-03T13:20:18.955Z,75.6
2022-08-03T13:22:18.979Z,122.0
2022-08-03T13:24:18.990Z,112.2
2022-08-03T13:26:18.964Z,98.8
2022-08-03T13:28:19.396Z,119.9
2022-08-03T13:30:30.107Z,142.8
2022-08-03T13:32:18.967Z,172.2
2022-08-03T13:34:22.973Z,218.7
2022-08-03T13:36:18.992Z,223.4
2022-08-03T13:38:19.039Z,108.2
2022-08-03T13:40:18.985Z,185.0
2022-08-03T13:42:18.991Z,201.6
2022-08-03T13:44:29.361Z,204.9
2022-08-03T13:46:18.993Z,196.0
2022-08-03T13:48:35.995Z,204.4
2022-08-03T13:50:19.046Z,211.8
2022-08-03T13:52:19.173Z,193.0
2022-08-03T13:54:19.000Z,222.3
2022-08-03T13:56:18.999Z,230.8
2022-08-03T13:58:19.216Z,118.2
2022-08-03T14:00:28.141Z,122.3
2022-08-03T14:02:19.079Z,142.5
2022-08-03T14:04:22.029Z,162.7
2022-08-03T14:06:19.010Z,212.7
2022-08-03T14:08:19.022Z,155.2
2022-08-03T14:10:19.136Z,224.2
2022-08-03T14:12:19.019Z,245.5
2022-08-03T14:14:19.024Z,219.3
2022-08-03T14:16:19.026Z,183.3
2022-08-03T14:18:27.784Z,134.3
2022-08-03T14:20:37.321Z,91.8
2022-08-03T14:22:19.085Z,352.8
2022-08-03T14:24:19.095Z,192.3
2022-08-03T14:26:19.011Z,200.5
2022-08-03T14:28:19.050Z,125.8
2022-08-03T14:30:19.039Z,72.2
2022-08-03T14:32:19.062Z,7.6
2022-08-03T14:34:19.108Z,95.1
2022-08-03T14:36:19.084Z,90.7
2022-08-03T14:38:19.042Z,146.6
2022-08-03T14:40:19.096Z,133.2
2022-08-03T14:42:19.038Z,153.3
2022-08-03T14:44:19.113Z,104.2
2022-08-03T14:46:19.057Z,100.8
2022-08-03T14:50:29.466Z,267.1
2022-08-03T14:50:38.283Z,267.1
2022-08-03T14:50:41.051Z,267.1
2022-08-03T14:50:50.672Z,187.7
2022-08-03T14:52:19.054Z,247.5
2022-08-03T14:54:19.054Z,300.3
2022-08-03T14:56:20.022Z,280.1
2022-08-03T14:58:20.933Z,281.0
2022-08-03T15:00:19.041Z,291.1
2022-08-03T15:02:23.781Z,246.5
2022-08-03T15:04:19.073Z,198.3
2022-08-03T15:06:19.069Z,214.3
2022-08-03T15:08:19.118Z,158.9
2022-08-03T15:10:19.086Z,126.0
2022-08-03T15:12:19.136Z,280.1
2022-08-03T15:14:19.073Z,169.0
2022-08-03T15:16:19.081Z,199.5
2022-08-03T15:18:19.088Z,102.3
2022-08-03T15:20:28.905Z,103.1
2022-08-03T15:22:20.684Z,100.2
2022-08-03T15:24:19.062Z,118.6
2022-08-03T15:26:30.907Z,109.3
2022-08-03T15:28:19.080Z,111.3
2022-08-03T15:30:19.079Z,110.8
2022-08-03T15:32:19.523Z,113.4
2022-08-03T15:34:19.400Z,119.4
2022-08-03T15:36:19.409Z,119.3
2022-08-03T15:38:19.346Z,100.5
2022-08-03T15:40:19.403Z,112.8
2022-08-03T15:42:19.398Z,225.8
2022-08-03T15:44:19.305Z,188.4
2022-08-03T15:46:29.157Z,188.0
2022-08-03T15:48:19.096Z,193.7
2022-08-03T15:50:19.054Z,216.0
2022-08-03T15:52:19.104Z,209.1
2022-08-03T15:54:19.215Z,220.1
2022-08-03T15:56:19.140Z,202.2
2022-08-03T15:59:09.576Z,198.5
2022-08-03T16:00:19.075Z,240.4
2022-08-03T16:02:19.139Z,288.9
2022-08-03T16:04:19.121Z,199.9
2022-08-03T16:06:19.107Z,241.4
2022-08-03T16:08:19.105Z,206.8
2022-08-03T16:10:19.159Z,222.1
2022-08-03T16:12:19.239Z,225.2
2022-08-03T16:14:32.294Z,223.0
2022-08-03T16:16:19.277Z,247.7
2022-08-03T16:18:19.444Z,238.1
2022-08-03T16:22:19.659Z,291.0
2022-08-03T16:24:23.095Z,245.9
2022-08-03T16:26:19.135Z,239.0
2022-08-03T16:28:19.515Z,232.7
2022-08-03T16:30:19.192Z,228.4
2022-08-03T16:32:19.294Z,196.3
2022-08-03T16:34:19.127Z,194.9
2022-08-03T16:36:19.287Z,197.9
2022-08-03T16:38:19.689Z,205.7
2022-08-03T16:40:19.473Z,230.4
2022-08-03T16:42:19.113Z,186.5
2022-08-03T16:44:19.113Z,223.9
2022-08-03T16:46:19.196Z,239.3
2022-08-03T16:48:19.127Z,241.2
2022-08-03T16:50:20.089Z,214.4
2022-08-03T16:52:19.130Z,230.8
2022-08-03T16:54:19.149Z,242.4
2022-08-03T16:56:19.166Z,269.0
2022-08-03T16:58:19.175Z,201.8
2022-08-03T17:00:33.852Z,194.5
2022-08-03T17:02:19.482Z,223.1
2022-08-03T17:10:21.853Z,246.0
2022-08-03T17:12:19.201Z,214.3
2022-08-03T17:14:21.774Z,189.0
2022-08-03T17:32:21.278Z,321.0
2022-08-03T17:34:19.218Z,321.0
2022-08-03T17:38:22.802Z,321.0
2022-08-03T17:42:31.163Z,321.0
2022-08-03T17:44:32.022Z,331.2
2022-08-03T17:46:19.708Z,336.0
2022-08-03T17:48:19.220Z,1.8
2022-08-03T17:50:23.959Z,5.0
2022-08-03T17:52:19.249Z,336.6
2022-08-03T17:54:19.254Z,336.0
2022-08-03T17:56:42.555Z,336.0
2022-08-03T17:58:19.217Z,336.0
2022-08-03T18:04:19.253Z,336.0
2022-08-03T18:06:28.582Z,336.0
2022-08-03T18:14:19.248Z,333.3
2022-08-03T18:16:19.267Z,281.0
2022-08-03T18:46:16.777Z,125.0
